createdAt,value
2023-05-06T00:02:14.727Z,5.82
2023-05-06T00:05:18.871Z,5.05
2023-05-06T00:08:26.511Z,5.82
2023-05-06T00:11:31.261Z,3.67
2023-05-06T00:14:34.860Z,5.30
2023-05-06T00:17:40.846Z,3.40
2023-05-06T00:20:44.548Z,3.95
2023-05-06T00:23:49.393Z,4.38
2023-05-06T00:26:53.020Z,6.32
2023-05-06T00:29:56.355Z,3.55
2023-05-06T00:33:02.769Z,4.93
2023-05-06T00:36:06.574Z,2.70
2023-05-06T00:39:10.852Z,3.47
2023-05-06T00:42:14.434Z,4.05
2023-05-06T00:45:18.054Z,2.70
2023-05-06T00:48:23.587Z,4.22
2023-05-06T00:51:30.937Z,6.55
2023-05-06T00:54:35.950Z,3.75
2023-05-06T00:57:40.371Z,6.82
2023-05-06T01:00:44.591Z,3.47
2023-05-06T01:03:57.061Z,4.18
2023-05-06T01:07:09.417Z,4.00
2023-05-06T01:10:18.706Z,4.30
2023-05-06T01:13:26.859Z,2.95
2023-05-06T01:16:32.579Z,5.20
2023-05-06T01:19:41.904Z,3.78
2023-05-06T01:22:47.016Z,7.20
2023-05-06T01:25:52.279Z,4.30
2023-05-06T01:28:56.035Z,5.03
2023-05-06T01:32:05.692Z,2.05
2023-05-06T01:35:14.107Z,3.45
2023-05-06T01:38:24.898Z,5.00
2023-05-06T01:41:35.782Z,4.50
2023-05-06T01:44:40.770Z,6.82
2023-05-06T01:47:52.726Z,4.20
2023-05-06T01:50:58.451Z,5.85
2023-05-06T01:54:04.419Z,4.43
2023-05-06T01:57:09.689Z,1.98
2023-05-06T02:00:13.700Z,6.22
2023-05-06T02:03:19.094Z,2.92
2023-05-06T02:06:24.044Z,3.13
2023-05-06T02:09:28.559Z,5.68
2023-05-06T02:12:38.438Z,5.63
2023-05-06T02:15:42.700Z,4.43
2023-05-06T02:18:52.471Z,5.38
2023-05-06T02:22:00.420Z,5.55
2023-05-06T02:25:03.913Z,6.40
2023-05-06T02:28:09.216Z,4.85
2023-05-06T02:31:15.360Z,5.60
2023-05-06T02:34:19.547Z,6.43
2023-05-06T02:37:23.458Z,4.13
2023-05-06T02:40:27.102Z,6.22
2023-05-06T02:43:35.908Z,8.98
2023-05-06T02:46:42.304Z,2.80
2023-05-06T02:49:45.716Z,5.75
2023-05-06T02:52:51.058Z,3.55
2023-05-06T02:55:54.911Z,5.28
2023-05-06T02:59:00.123Z,3.28
2023-05-06T03:02:03.712Z,4.93
2023-05-06T03:05:07.882Z,2.97
2023-05-06T03:08:12.253Z,8.73
2023-05-06T03:11:16.935Z,7.85
2023-05-06T03:14:23.168Z,3.95
2023-05-06T03:17:30.212Z,2.95
2023-05-06T03:20:35.108Z,3.30
2023-05-06T03:23:39.384Z,5.32
2023-05-06T03:26:53.522Z,5.20
2023-05-06T03:30:02.501Z,5.10
2023-05-06T03:33:07.799Z,3.63
2023-05-06T03:36:12.937Z,4.47
2023-05-06T03:39:18.216Z,3.88
2023-05-06T03:42:22.990Z,4.07
2023-05-06T03:45:30.501Z,3.97
2023-05-06T03:48:37.235Z,4.25
2023-05-06T03:51:44.802Z,4.10
2023-05-06T03:54:48.644Z,3.45
2023-05-06T03:57:52.965Z,4.93
2023-05-06T04:01:01.479Z,4.95
2023-05-06T04:04:06.460Z,9.00
2023-05-06T04:07:11.340Z,3.17
2023-05-06T04:10:15.248Z,2.67
2023-05-06T04:13:26.190Z,6.65
2023-05-06T04:16:32.497Z,5.63
2023-05-06T04:19:36.024Z,2.97
2023-05-06T04:22:47.040Z,5.03
2023-05-06T04:25:52.028Z,3.88
2023-05-06T04:29:02.029Z,5.13
2023-05-06T04:32:11.850Z,8.60
2023-05-06T04:35:17.288Z,6.57
2023-05-06T04:38:22.180Z,5.10
2023-05-06T04:41:26.831Z,4.93
2023-05-06T04:44:33.864Z,3.67
2023-05-06T04:47:41.500Z,3.42
2023-05-06T04:50:45.955Z,4.68
2023-05-06T04:53:50.081Z,6.30
2023-05-06T04:56:54.682Z,4.03
2023-05-06T04:59:58.420Z,3.80
2023-05-06T05:03:03.593Z,3.08
2023-05-06T05:06:07.816Z,4.25
2023-05-06T05:09:12.137Z,6.13
2023-05-06T05:12:19.437Z,5.57
2023-05-06T05:15:30.176Z,7.18
2023-05-06T05:18:35.655Z,6.05
2023-05-06T05:21:47.478Z,4.50
2023-05-06T05:24:52.607Z,6.05
2023-05-06T05:27:56.580Z,9.77
2023-05-06T05:31:03.725Z,3.90
2023-05-06T05:34:12.729Z,3.33
2023-05-06T05:37:16.942Z,5.57
2023-05-06T05:40:21.009Z,5.65
2023-05-06T05:43:32.181Z,3.92
2023-05-06T05:46:37.751Z,4.00
2023-05-06T05:49:44.067Z,6.00
2023-05-06T05:52:52.039Z,4.80
2023-05-06T05:55:57.258Z,6.10
2023-05-06T05:59:02.724Z,4.72
2023-05-06T06:02:07.092Z,6.32
2023-05-06T06:05:13.191Z,4.65
2023-05-06T06:08:19.549Z,6.03
2023-05-06T06:11:26.813Z,6.43
2023-05-06T06:14:30.481Z,7.25
2023-05-06T06:17:34.501Z,3.42
2023-05-06T06:20:40.748Z,9.10
2023-05-06T06:23:46.240Z,3.58
2023-05-06T06:26:53.579Z,4.00
2023-05-06T06:29:56.976Z,5.32
2023-05-06T06:33:03.003Z,7.07
2023-05-06T06:36:09.463Z,2.97
2023-05-06T06:39:13.228Z,6.45
2023-05-06T06:42:16.751Z,8.32
2023-05-06T06:45:33.082Z,5.10
2023-05-06T06:48:36.677Z,4.47
2023-05-06T06:51:42.336Z,5.13
2023-05-06T06:54:46.200Z,3.97
2023-05-06T06:57:50.136Z,5.75
2023-05-06T07:00:53.536Z,5.35
2023-05-06T07:03:57.751Z,6.65
2023-05-06T07:07:02.840Z,4.80
2023-05-06T07:10:07.183Z,8.50
2023-05-06T07:13:11.691Z,4.00
2023-05-06T07:16:15.978Z,8.40
2023-05-06T07:19:20.327Z,5.97
2023-05-06T07:22:25.312Z,5.63
2023-05-06T07:25:29.001Z,4.15
2023-05-06T07:28:36.995Z,4.60
2023-05-06T07:31:41.555Z,5.78
2023-05-06T07:34:45.141Z,4.25
2023-05-06T07:37:50.149Z,6.10
2023-05-06T07:40:55.701Z,5.55
2023-05-06T07:43:59.649Z,7.30
2023-05-06T07:47:04.100Z,5.05
2023-05-06T07:50:08.302Z,6.22
2023-05-06T07:53:16.035Z,5.63
2023-05-06T07:56:20.615Z,7.47
2023-05-06T07:59:24.406Z,4.90
2023-05-06T08:02:28.337Z,4.93
2023-05-06T08:05:32.040Z,6.95
2023-05-06T08:08:37.275Z,4.45
2023-05-06T08:11:40.645Z,5.82
2023-05-06T08:14:44.430Z,4.63
2023-05-06T08:17:48.023Z,6.22
2023-05-06T08:20:51.818Z,5.10
2023-05-06T08:23:57.922Z,4.80
2023-05-06T08:27:01.423Z,5.60
2023-05-06T08:30:05.564Z,4.90
2023-05-06T08:33:09.158Z,4.65
2023-05-06T08:36:12.678Z,4.75
2023-05-06T08:39:18.255Z,6.80
2023-05-06T08:42:22.323Z,7.32
2023-05-06T08:45:27.968Z,4.93
2023-05-06T08:48:33.930Z,5.10
2023-05-06T08:51:37.872Z,7.20
2023-05-06T08:54:44.948Z,6.25
2023-05-06T08:57:52.417Z,9.85
2023-05-06T09:00:56.608Z,8.02
2023-05-06T09:04:01.249Z,8.80
2023-05-06T09:07:04.770Z,12.10
2023-05-06T09:10:14.922Z,4.07
2023-05-06T09:13:19.643Z,9.50
2023-05-06T09:16:30.111Z,5.32
2023-05-06T09:19:33.699Z,8.93
2023-05-06T09:22:39.764Z,6.65
2023-05-06T09:25:47.829Z,3.88
2023-05-06T09:28:52.711Z,6.57
2023-05-06T09:31:56.770Z,3.08
2023-05-06T09:35:01.663Z,6.78
2023-05-06T09:38:10.438Z,5.35
2023-05-06T09:41:16.797Z,7.82
2023-05-06T09:44:20.680Z,7.05
2023-05-06T09:47:26.907Z,5.50
2023-05-06T09:50:30.851Z,4.63
2023-05-06T09:53:34.974Z,5.05
2023-05-06T09:56:40.598Z,6.97
2023-05-06T09:59:45.475Z,6.90
2023-05-06T10:02:49.265Z,8.25
2023-05-06T10:05:52.910Z,6.60
2023-05-06T10:08:56.667Z,7.88
2023-05-06T10:12:02.453Z,5.88
2023-05-06T10:15:06.681Z,5.78
2023-05-06T10:18:15.741Z,5.20
2023-05-06T10:21:23.174Z,4.82
2023-05-06T10:24:31.631Z,6.05
2023-05-06T10:27:37.572Z,8.68
2023-05-06T10:30:42.165Z,6.38
2023-05-06T10:33:47.891Z,5.32
2023-05-06T10:36:52.547Z,6.40
2023-05-06T10:39:56.513Z,6.43
2023-05-06T10:43:15.333Z,8.50
2023-05-06T10:46:22.767Z,6.20
2023-05-06T10:49:26.711Z,8.45
2023-05-06T10:52:45.486Z,5.70
2023-05-06T10:55:50.105Z,4.20
2023-05-06T10:58:55.814Z,7.47
2023-05-06T11:02:10.887Z,6.30
2023-05-06T11:05:14.848Z,10.10
2023-05-06T11:08:23.615Z,8.27
2023-05-06T11:11:45.891Z,5.07
2023-05-06T11:14:50.933Z,6.35
2023-05-06T11:17:56.766Z,8.98
2023-05-06T11:21:15.312Z,5.50
2023-05-06T11:24:24.707Z,5.38
2023-05-06T11:27:29.407Z,7.15
2023-05-06T11:30:33.163Z,7.07
2023-05-06T11:33:38.625Z,8.52
2023-05-06T11:36:49.252Z,12.85
2023-05-06T11:39:52.784Z,10.15
2023-05-06T11:42:58.166Z,9.80
2023-05-06T11:46:33.070Z,8.60
2023-05-06T11:54:10.010Z,9.57
2023-05-06T11:57:16.861Z,8.65
2023-05-06T12:00:23.050Z,5.90
2023-05-06T12:03:27.786Z,7.80
2023-05-06T12:06:37.710Z,6.10
2023-05-06T12:09:41.973Z,7.10
2023-05-06T12:12:45.890Z,4.68
2023-05-06T12:15:50.284Z,6.97
2023-05-06T12:18:54.757Z,5.85
2023-05-06T12:22:15.823Z,4.88
2023-05-06T12:25:21.828Z,6.05
2023-05-06T12:28:26.725Z,6.22
2023-05-06T12:31:32.004Z,5.32
2023-05-06T12:34:39.213Z,6.80
2023-05-06T12:37:45.358Z,7.93
2023-05-06T12:40:58.247Z,7.60
2023-05-06T12:44:02.488Z,7.00
2023-05-06T12:47:10.172Z,6.25
2023-05-06T12:50:14.122Z,6.47
2023-05-06T12:53:32.841Z,4.60
2023-05-06T12:56:36.211Z,8.30
2023-05-06T12:59:42.763Z,5.30
2023-05-06T13:02:46.594Z,7.05
2023-05-06T13:05:51.806Z,8.00
2023-05-06T13:08:59.024Z,5.93
2023-05-06T13:12:04.900Z,5.13
2023-05-06T13:15:10.152Z,5.90
2023-05-06T13:18:23.540Z,5.68
2023-05-06T13:21:28.667Z,5.55
2023-05-06T13:24:33.823Z,6.72
2023-05-06T13:27:37.665Z,7.18
2023-05-06T13:30:42.047Z,6.03
2023-05-06T13:33:48.720Z,7.20
2023-05-06T13:36:54.468Z,5.70
2023-05-06T13:40:03.655Z,5.38
2023-05-06T13:43:07.479Z,5.03
2023-05-06T13:46:12.452Z,6.20
2023-05-06T13:49:16.437Z,8.60
2023-05-06T13:52:20.575Z,5.53
2023-05-06T13:55:26.468Z,6.95
2023-05-06T13:58:29.853Z,6.88
2023-05-06T14:01:34.082Z,7.63
2023-05-06T14:04:37.868Z,6.13
2023-05-06T14:07:42.919Z,7.65
2023-05-06T14:10:48.461Z,5.50
2023-05-06T14:14:03.598Z,6.95
2023-05-06T14:17:25.514Z,8.30
2023-05-06T14:20:31.977Z,12.13
2023-05-06T14:23:38.127Z,11.90
2023-05-06T14:26:46.106Z,9.15
2023-05-06T14:29:50.096Z,11.35
2023-05-06T14:32:53.848Z,10.57
2023-05-06T14:36:00.720Z,7.90
2023-05-06T14:39:04.819Z,8.30
2023-05-06T14:42:12.230Z,7.18
2023-05-06T14:45:16.162Z,12.18
2023-05-06T14:48:23.662Z,9.60
2023-05-06T14:51:29.446Z,9.15
2023-05-06T14:54:35.475Z,10.82
2023-05-06T14:57:41.214Z,11.23
2023-05-06T15:00:48.500Z,11.70
2023-05-06T15:03:53.380Z,13.20
2023-05-06T15:07:01.162Z,11.35
2023-05-06T15:10:09.115Z,12.77
2023-05-06T15:13:15.591Z,9.95
2023-05-06T15:16:21.148Z,9.32
2023-05-06T15:19:24.838Z,10.88
2023-05-06T15:22:28.675Z,15.05
2023-05-06T15:25:37.108Z,9.98
2023-05-06T15:28:43.089Z,14.30
2023-05-06T15:31:48.193Z,10.77
2023-05-06T15:34:52.004Z,12.40
2023-05-06T15:37:58.874Z,9.57
2023-05-06T15:41:02.885Z,13.82
2023-05-06T15:44:12.158Z,12.35
2023-05-06T15:47:16.702Z,13.15
2023-05-06T15:50:32.886Z,9.73
2023-05-06T15:54:57.519Z,10.63
2023-05-06T15:57:40.864Z,12.57
2023-05-06T16:00:46.642Z,8.38
2023-05-06T16:03:50.465Z,10.13
2023-05-06T16:06:56.113Z,13.13
2023-05-06T16:10:00.810Z,25.52
2023-05-06T16:13:04.948Z,16.33
2023-05-06T16:16:10.934Z,9.05
2023-05-06T16:19:39.599Z,8.23
2023-05-06T16:22:44.197Z,8.88
2023-05-06T16:25:50.005Z,9.02
2023-05-06T16:28:57.117Z,9.38
2023-05-06T16:32:02.499Z,11.50
2023-05-06T16:35:08.658Z,22.40
2023-05-06T16:38:12.286Z,10.55
2023-05-06T16:41:16.101Z,11.10
2023-05-06T16:44:20.316Z,18.98
2023-05-06T16:47:25.670Z,15.60
2023-05-06T16:50:29.168Z,14.80
2023-05-06T16:53:44.735Z,16.77
2023-05-06T16:56:52.939Z,15.88
2023-05-06T16:59:57.121Z,16.13
2023-05-06T17:03:03.799Z,16.95
2023-05-06T17:06:07.979Z,14.95
2023-05-06T17:09:12.336Z,10.50
2023-05-06T17:12:16.417Z,9.02
2023-05-06T17:15:20.631Z,10.30
2023-05-06T17:18:25.426Z,11.70
2023-05-06T17:21:31.887Z,10.57
2023-05-06T17:24:36.070Z,9.40
2023-05-06T17:27:39.602Z,12.68
2023-05-06T17:30:43.087Z,10.27
2023-05-06T17:33:48.516Z,11.18
2023-05-06T17:36:54.743Z,10.57
2023-05-06T17:39:59.785Z,17.95
2023-05-06T17:43:03.549Z,11.43
2023-05-06T17:46:09.464Z,7.68
2023-05-06T17:49:14.642Z,10.65
2023-05-06T17:52:19.292Z,9.40
2023-05-06T17:55:24.254Z,10.65
2023-05-06T17:58:28.709Z,9.88
2023-05-06T18:01:38.634Z,9.80
2023-05-06T18:04:54.601Z,8.48
2023-05-06T18:07:58.749Z,8.45
2023-05-06T18:11:02.498Z,8.85
2023-05-06T18:14:10.409Z,9.40
2023-05-06T18:17:14.430Z,8.70
2023-05-06T18:20:23.850Z,11.60
2023-05-06T18:23:29.679Z,9.30
2023-05-06T18:26:44.862Z,11.13
2023-05-06T18:29:49.221Z,10.57
2023-05-06T18:32:56.736Z,11.05
2023-05-06T18:36:01.946Z,11.65
2023-05-06T18:39:08.887Z,12.70
2023-05-06T18:42:17.015Z,10.93
2023-05-06T18:45:20.586Z,10.50
2023-05-06T18:48:31.035Z,14.25
2023-05-06T18:51:37.732Z,11.02
2023-05-06T18:54:46.295Z,12.00
2023-05-06T18:57:50.191Z,10.93
2023-05-06T19:00:55.754Z,13.43
2023-05-06T19:04:03.708Z,11.05
2023-05-06T19:07:10.125Z,11.02
2023-05-06T19:10:19.678Z,11.48
2023-05-06T19:13:23.939Z,9.43
2023-05-06T19:16:28.463Z,10.73
2023-05-06T19:19:32.842Z,10.05
2023-05-06T19:22:38.264Z,12.23
2023-05-06T19:25:42.012Z,9.75
2023-05-06T19:28:45.866Z,10.32
2023-05-06T19:31:51.263Z,9.80
2023-05-06T19:34:55.413Z,9.52
2023-05-06T19:38:04.644Z,12.27
2023-05-06T19:41:10.575Z,13.13
2023-05-06T19:44:15.507Z,9.13
2023-05-06T19:47:20.996Z,9.98
2023-05-06T19:50:29.705Z,12.25
2023-05-06T19:53:38.769Z,10.15
2023-05-06T19:56:43.293Z,12.27
2023-05-06T19:59:48.465Z,9.88
2023-05-06T20:02:53.418Z,11.77
2023-05-06T20:05:57.289Z,9.40
2023-05-06T20:09:04.212Z,14.60
2023-05-06T20:12:09.625Z,11.55
2023-05-06T20:15:15.858Z,9.07
2023-05-06T20:18:22.908Z,9.63
2023-05-06T20:21:27.232Z,13.73
2023-05-06T20:24:53.273Z,9.25
2023-05-06T20:28:27.533Z,8.40
2023-05-06T20:32:06.397Z,7.60
2023-05-06T20:35:19.879Z,8.30
2023-05-06T20:38:27.450Z,9.02
2023-05-06T20:41:33.230Z,8.38
2023-05-06T20:44:38.897Z,10.05
2023-05-06T20:47:42.724Z,7.50
2023-05-06T20:50:46.630Z,7.38
2023-05-06T20:53:52.340Z,8.43
2023-05-06T20:57:00.223Z,8.57
2023-05-06T21:00:07.547Z,9.02
2023-05-06T21:03:11.670Z,7.50
2023-05-06T21:06:16.714Z,6.95
2023-05-06T21:09:23.490Z,6.10
2023-05-06T21:12:34.022Z,6.60
2023-05-06T21:15:39.364Z,6.80
2023-05-06T21:18:43.180Z,8.18
2023-05-06T21:21:50.189Z,9.05
2023-05-06T21:24:53.667Z,7.78
2023-05-06T21:27:57.746Z,6.95
2023-05-06T21:31:08.506Z,5.05
2023-05-06T21:34:12.867Z,6.55
2023-05-06T21:37:17.478Z,8.65
2023-05-06T21:40:20.992Z,7.30
2023-05-06T21:43:24.950Z,6.07
2023-05-06T21:46:31.724Z,9.00
2023-05-06T21:49:37.261Z,6.70
2023-05-06T21:52:41.734Z,7.10
2023-05-06T21:55:45.948Z,6.88
2023-05-06T21:58:54.289Z,8.05
2023-05-06T22:02:00.787Z,5.80
2023-05-06T22:05:04.357Z,5.15
2023-05-06T22:08:08.488Z,8.05
2023-05-06T22:11:13.223Z,9.68
2023-05-06T22:14:21.946Z,6.30
2023-05-06T22:17:32.586Z,6.97
2023-05-06T22:20:36.902Z,13.85
2023-05-06T22:23:42.036Z,5.72
2023-05-06T22:26:49.298Z,6.47
2023-05-06T22:30:00.346Z,4.63
2023-05-06T22:33:14.968Z,6.82
2023-05-06T22:36:19.605Z,7.78
2023-05-06T22:39:25.845Z,7.30
2023-05-06T22:42:29.866Z,10.15
2023-05-06T22:45:33.911Z,6.57
2023-05-06T22:48:40.374Z,5.60
2023-05-06T22:51:44.400Z,3.50
2023-05-06T22:54:48.254Z,8.05
2023-05-06T22:57:53.989Z,6.05
2023-05-06T23:01:01.445Z,6.47
2023-05-06T23:04:07.737Z,8.93
2023-05-06T23:07:14.616Z,8.52
2023-05-06T23:10:18.102Z,7.28
2023-05-06T23:13:22.002Z,5.78
2023-05-06T23:16:26.579Z,5.82
2023-05-06T23:19:32.756Z,5.18
2023-05-06T23:22:36.394Z,6.70
2023-05-06T23:25:40.774Z,6.55
2023-05-06T23:28:44.401Z,7.72
2023-05-06T23:31:51.266Z,6.55
2023-05-06T23:34:56.291Z,7.75
2023-05-06T23:38:00.465Z,8.32
2023-05-06T23:41:05.261Z,6.43
2023-05-06T23:44:08.721Z,6.93
2023-05-06T23:47:12.353Z,7.00
2023-05-06T23:50:18.144Z,6.45
2023-05-06T23:53:24.406Z,9.00
2023-05-06T23:56:58.698Z,8.82
